Time;durP1;ratioP1;P1;durP2;ratioP2;P2;SDS_P1;SDS_P2;PMS_P1;PMS_P2;Temp;Humidity;BMP_temperature;BMP_pressure;BME280_temperature;BME280_humidity;BME280_pressure;Samples;Min_cycle;Max_cycle;Signal;HPM_P1;HPM_P2
2021/06/04 00:00:08;;;;;;;;;;;;;;;13.27;54.34;98951.31;1752211;80;25239;-89
2021/06/04 00:02:36;;;;;;;;;;;;;;;13.21;54.42;98955.70;1746162;80;20260;-89
2021/06/04 00:05:04;;;;;;;;;;;;;;;13.11;54.51;98945.45;1749616;80;24799;-86
2021/06/04 00:07:30;;;;;;;;;;;;;;;13.08;54.64;98948.31;1729169;82;22080;-86
2021/06/04 00:09:59;;;;;;;;;;;;;;;13.07;54.71;98945.31;1733478;82;21171;-89
2021/06/04 00:12:26;;;;;;;;;;;;;;;13.11;54.81;98946.30;1754110;80;24624;-89
2021/06/04 00:14:52;;;;;;;;;;;;;;;13.14;54.89;98946.59;1753780;80;20301;-90
2021/06/04 00:17:22;;;;;;;;;;;;;;;13.11;54.96;98944.98;1751416;80;24747;-89
2021/06/04 00:19:48;;;;;;;;;;;;;;;13.04;55.04;98947.67;1749542;80;22183;-90
2021/06/04 00:22:25;;;;;;;;;;;;;;;12.95;55.10;98945.24;1732772;82;26795;-90
2021/06/04 00:24:57;;;;;;;;;;;;;;;12.98;55.19;98939.75;1733082;82;24406;-90
2021/06/04 00:27:29;;;;;;;;;;;;;;;13.10;55.28;98945.92;1732047;82;20187;-90
2021/06/04 00:29:55;;;;;;;;;;;;;;;13.19;55.34;98945.78;1709542;82;25228;-90
2021/06/04 00:32:22;;;;;;;;;;;;;;;13.23;55.39;98948.08;1733215;82;20226;-89
2021/06/04 00:34:56;;;;;;;;;;;;;;;13.29;55.44;98944.16;1733415;81;26134;-88
2021/06/04 00:37:22;;;;;;;;;;;;;;;13.18;55.47;98945.42;1733799;81;24489;-90
2021/06/04 00:39:49;;;;;;;;;;;;;;;13.07;55.52;98940.91;1717581;82;20243;-88
2021/06/04 00:42:23;;;;;;;;;;;;;;;12.93;55.61;98937.94;1750983;80;24706;-89
2021/06/04 00:44:54;;;;;;;;;;;;;;;12.76;55.64;98943.57;1747619;80;21942;-89
2021/06/04 00:47:21;;;;;;;;;;;;;;;12.61;55.73;98946.41;1753647;80;26942;-88
2021/06/04 00:49:49;;;;;;;;;;;;;;;12.42;55.84;98952.11;1749786;80;24406;-88
2021/06/04 00:52:24;;;;;;;;;;;;;;;12.21;55.95;98953.59;1747245;80;20521;-89
2021/06/04 00:54:54;;;;;;;;;;;;;;;11.94;56.14;98955.83;1750205;80;24977;-89
2021/06/04 00:57:20;;;;;;;;;;;;;;;11.73;56.35;98947.58;1748964;80;21622;-89
2021/06/04 00:59:49;;;;;;;;;;;;;;;11.69;56.54;98945.23;1749352;80;25922;-89
2021/06/04 01:02:22;;;;;;;;;;;;;;;11.66;56.75;98950.70;1744727;80;24514;-89
2021/06/04 01:04:48;;;;;;;;;;;;;;;11.64;56.94;98953.41;1751716;80;20244;-89
2021/06/04 01:07:16;;;;;;;;;;;;;;;11.64;57.13;98951.25;1743803;80;24810;-85
2021/06/04 01:10:01;;;;;;;;;;;;;;;11.64;57.32;98945.55;1746060;80;22003;-90
2021/06/04 01:12:47;;;;;;;;;;;;;;;11.64;57.48;98948.63;1753674;80;26051;-91
2021/06/04 01:15:14;;;;;;;;;;;;;;;11.62;57.67;98953.12;1752123;80;24682;-89
2021/06/04 01:17:59;;;;;;;;;;;;;;;11.63;57.84;98954.81;1747922;80;20354;-88
2021/06/04 01:20:27;;;;;;;;;;;;;;;11.64;57.97;98952.09;1742808;80;26197;-89
2021/06/04 01:23:07;;;;;;;;;;;;;;;11.84;58.12;98949.98;1748716;80;22235;-89
2021/06/04 01:25:48;;;;;;;;;;;;;;;12.00;58.21;98951.45;1751825;80;26056;-91
2021/06/04 01:28:25;;;;;;;;;;;;;;;11.98;58.25;98942.02;1742606;80;24411;-88
2021/06/04 01:30:53;;;;;;;;;;;;;;;11.85;58.28;98949.86;1750611;80;20246;-85
2021/06/04 01:33:26;;;;;;;;;;;;;;;11.78;58.32;98950.39;1759547;80;25655;-85
2021/06/04 01:35:51;;;;;;;;;;;;;;;11.85;58.39;98950.33;1744169;80;22150;-88
2021/06/04 01:38:19;;;;;;;;;;;;;;;11.94;58.46;98954.52;1745092;80;26173;-88
2021/06/04 01:40:50;;;;;;;;;;;;;;;11.96;58.50;98950.45;1762598;80;25519;-88
2021/06/04 01:43:27;;;;;;;;;;;;;;;11.86;58.54;98949.39;1768016;79;20298;-90
2021/06/04 01:46:00;;;;;;;;;;;;;;;11.84;58.56;98952.61;1772465;80;24757;-90
2021/06/04 01:48:32;;;;;;;;;;;;;;;11.91;58.65;98960.41;1771562;80;20182;-89
2021/06/04 01:51:00;;;;;;;;;;;;;;;12.03;58.71;98946.48;1775823;80;26858;-89
2021/06/04 01:53:28;;;;;;;;;;;;;;;12.08;58.76;98949.17;1771226;80;24403;-90
2021/06/04 01:55:58;;;;;;;;;;;;;;;12.07;58.75;98952.73;1769797;80;20281;-89
2021/06/04 01:58:28;;;;;;;;;;;;;;;12.04;58.80;98954.26;1766847;80;24771;-89
2021/06/04 02:00:56;;;;;;;;;;;;;;;12.04;58.81;98946.86;1775235;80;22923;-89
2021/06/04 02:03:23;;;;;;;;;;;;;;;12.01;58.86;98952.30;1740937;80;26050;-89
2021/06/04 02:05:51;;;;;;;;;;;;;;;11.98;58.90;98953.36;1769393;80;24717;-88
2021/06/04 02:08:18;;;;;;;;;;;;;;;11.88;58.92;98949.67;1767081;80;20560;-89
2021/06/04 02:10:46;;;;;;;;;;;;;;;11.76;58.95;98947.02;1679683;83;24920;-88
2021/06/04 02:13:13;;;;;;;;;;;;;;;11.69;58.99;98946.55;1717135;82;21847;-88
2021/06/04 02:15:41;;;;;;;;;;;;;;;11.63;59.07;98943.86;1721422;82;26114;-88
2021/06/04 02:18:09;;;;;;;;;;;;;;;11.59;59.13;98945.02;1702479;83;24624;-88
2021/06/04 02:20:36;;;;;;;;;;;;;;;11.53;59.22;98949.81;1710520;83;20454;-89
2021/06/04 02:23:21;;;;;;;;;;;;;;;11.47;59.27;98942.34;1712649;83;24747;-88
2021/06/04 02:25:49;;;;;;;;;;;;;;;11.36;59.39;98948.28;1713411;83;22049;-88
2021/06/04 02:28:29;;;;;;;;;;;;;;;11.23;59.50;98954.80;1711026;83;26860;-88
2021/06/04 02:31:12;;;;;;;;;;;;;;;11.15;59.61;98957.52;1713265;83;24546;-91
2021/06/04 02:33:40;;;;;;;;;;;;;;;11.22;59.74;98949.19;1714624;82;20219;-89
2021/06/04 02:36:17;;;;;;;;;;;;;;;11.32;59.85;98948.12;1709344;82;24836;-89
2021/06/04 02:38:45;;;;;;;;;;;;;;;11.40;59.95;98946.33;1713455;82;22696;-89
2021/06/04 02:41:22;;;;;;;;;;;;;;;11.41;60.04;98943.58;1711067;83;25962;-88
2021/06/04 02:43:50;;;;;;;;;;;;;;;11.28;60.08;98945.34;1714644;83;25295;-89
2021/06/04 02:46:19;;;;;;;;;;;;;;;11.17;60.15;98946.49;1714921;82;20266;-88
2021/06/04 02:48:47;;;;;;;;;;;;;;;11.20;60.25;98947.13;1716343;83;25529;-88
2021/06/04 02:51:21;;;;;;;;;;;;;;;11.28;60.34;98952.73;1689990;83;21721;-85
2021/06/04 02:53:55;;;;;;;;;;;;;;;11.33;60.43;98957.67;1712802;83;25880;-85
2021/06/04 02:56:29;;;;;;;;;;;;;;;11.36;60.51;98956.61;1713778;83;24295;-89
2021/06/04 02:59:00;;;;;;;;;;;;;;;11.19;60.56;98955.91;1706471;83;20218;-88
2021/06/04 03:01:33;;;;;;;;;;;;;;;11.13;60.63;98956.77;1708329;83;24770;-88
2021/06/04 03:04:11;;;;;;;;;;;;;;;11.09;60.73;98957.45;1717261;83;21985;-89
2021/06/04 03:06:39;;;;;;;;;;;;;;;10.97;60.80;98960.83;1713144;83;26003;-89
2021/06/04 03:09:07;;;;;;;;;;;;;;;10.90;60.86;98960.41;1711240;82;24291;-86
2021/06/04 03:11:34;;;;;;;;;;;;;;;10.85;60.96;98957.70;1715701;83;20193;-89
2021/06/04 03:14:02;;;;;;;;;;;;;;;10.92;61.12;98961.59;1713240;82;24965;-89
2021/06/04 03:16:28;;;;;;;;;;;;;;;11.04;61.25;98969.16;1717213;82;22065;-89
2021/06/04 03:18:55;;;;;;;;;;;;;;;11.15;61.37;98961.45;1700035;83;26155;-89
2021/06/04 03:21:23;;;;;;;;;;;;;;;11.13;61.44;98968.09;1739459;81;25281;-89
2021/06/04 03:23:56;;;;;;;;;;;;;;;11.16;61.50;98969.22;1695236;83;20194;-90
2021/06/04 03:26:25;;;;;;;;;;;;;;;11.32;61.62;98972.55;1708839;83;25477;-89
2021/06/04 03:28:52;;;;;;;;;;;;;;;11.46;61.67;98962.47;1710610;82;21997;-91
2021/06/04 03:31:19;;;;;;;;;;;;;;;11.62;61.72;98967.55;1719332;81;26878;-89
2021/06/04 03:33:46;;;;;;;;;;;;;;;11.82;61.79;98961.04;1691311;84;24435;-85
2021/06/04 03:36:17;;;;;;;;;;;;;;;11.92;61.87;98972.13;1730090;82;20441;-85
2021/06/04 03:38:43;;;;;;;;;;;;;;;11.94;61.89;98964.16;1731536;82;25646;-88
2021/06/04 03:41:11;;;;;;;;;;;;;;;12.01;61.93;98967.56;1738277;82;22810;-88
2021/06/04 03:43:37;;;;;;;;;;;;;;;12.07;61.97;98967.62;1738757;82;26198;-88
2021/06/04 03:46:03;;;;;;;;;;;;;;;12.09;61.98;98961.81;1739870;82;24623;-88
2021/06/04 03:48:31;;;;;;;;;;;;;;;12.16;61.97;98964.41;1735347;82;20203;-85
2021/06/04 03:50:59;;;;;;;;;;;;;;;12.29;62.01;98970.95;1735663;82;25012;-86
2021/06/04 03:53:27;;;;;;;;;;;;;;;12.42;62.04;98971.33;1743276;82;22053;-86
2021/06/04 03:55:53;;;;;;;;;;;;;;;12.67;62.10;98974.39;1740580;82;25982;-86
2021/06/04 03:58:21;;;;;;;;;;;;;;;13.03;62.21;98968.83;1737818;82;24502;-85
2021/06/04 04:00:49;;;;;;;;;;;;;;;13.28;62.22;98969.61;1695616;82;20298;-85
2021/06/04 04:03:16;;;;;;;;;;;;;;;13.56;62.20;98971.07;1727043;82;24740;-85
2021/06/04 04:05:43;;;;;;;;;;;;;;;13.65;62.09;98974.33;1704489;83;22075;-88
2021/06/04 04:08:10;;;;;;;;;;;;;;;13.63;61.93;98975.41;1730466;82;26074;-88
2021/06/04 04:10:38;;;;;;;;;;;;;;;13.71;61.86;98975.20;1777546;78;24615;-85
2021/06/04 04:13:05;;;;;;;;;;;;;;;13.95;61.81;98971.70;1778934;79;20260;-85
2021/06/04 04:15:31;;;;;;;;;;;;;;;14.13;61.73;98973.77;1778426;79;24735;-87
2021/06/04 04:18:02;;;;;;;;;;;;;;;14.24;61.63;98969.00;1778332;79;22172;-89
2021/06/04 04:20:30;;;;;;;;;;;;;;;14.29;61.50;98969.52;1772104;79;25992;-89
2021/06/04 04:22:56;;;;;;;;;;;;;;;14.31;61.38;98969.38;1779669;79;24398;-88
2021/06/04 04:25:24;;;;;;;;;;;;;;;14.30;61.25;98969.85;1778373;79;20471;-88
2021/06/04 04:27:50;;;;;;;;;;;;;;;14.30;61.13;98965.06;1731062;82;25571;-89
2021/06/04 04:30:16;;;;;;;;;;;;;;;14.28;61.04;98970.47;1739977;81;22191;-89
2021/06/04 04:32:43;;;;;;;;;;;;;;;14.32;60.98;98973.69;1779122;79;26048;-90
2021/06/04 04:35:16;;;;;;;;;;;;;;;14.34;60.92;98971.31;1780371;79;20287;-90
2021/06/04 04:37:42;;;;;;;;;;;;;;;14.29;60.81;98968.67;1783318;79;20326;-92
2021/06/04 04:40:11;;;;;;;;;;;;;;;14.33;60.77;98964.37;1779384;79;20291;-87
2021/06/04 04:42:41;;;;;;;;;;;;;;;14.38;60.73;98971.47;1756685;80;22401;-85
2021/06/04 04:45:08;;;;;;;;;;;;;;;14.35;60.65;98972.13;1786194;79;26052;-88
2021/06/04 04:47:34;;;;;;;;;;;;;;;14.34;60.64;98973.11;1777964;79;25497;-88
2021/06/04 04:50:00;;;;;;;;;;;;;;;14.40;60.66;98977.94;1781773;79;20544;-89
2021/06/04 04:52:26;;;;;;;;;;;;;;;14.41;60.68;98979.12;1779461;79;20400;-90
2021/06/04 04:55:03;;;;;;;;;;;;;;;14.48;60.74;98977.70;1782939;79;21969;-88
2021/06/04 04:57:29;;;;;;;;;;;;;;;14.54;60.78;98980.34;1782286;79;25936;-89
2021/06/04 04:59:56;;;;;;;;;;;;;;;14.56;60.80;98983.20;1783518;79;24506;-90
2021/06/04 05:02:40;;;;;;;;;;;;;;;14.58;60.82;98981.77;1776987;79;20210;-92
2021/06/04 05:05:06;;;;;;;;;;;;;;;14.56;60.80;98981.07;1753986;80;24741;-91
2021/06/04 05:07:37;;;;;;;;;;;;;;;14.61;60.76;98977.59;1756361;79;21935;-91
2021/06/04 05:10:15;;;;;;;;;;;;;;;14.68;60.72;98988.47;1784380;79;26004;-91
2021/06/04 05:12:41;;;;;;;;;;;;;;;14.75;60.71;98986.57;1779740;78;24487;-88
2021/06/04 05:15:13;;;;;;;;;;;;;;;14.82;60.72;98988.25;1776703;79;20797;-88
2021/06/04 05:17:38;;;;;;;;;;;;;;;14.87;60.70;98988.73;1785675;79;24945;-86
2021/06/04 05:20:12;;;;;;;;;;;;;;;14.89;60.70;98988.95;1786362;79;22129;-90
2021/06/04 05:22:41;;;;;;;;;;;;;;;14.93;60.71;98991.73;1781858;79;25956;-88
2021/06/04 05:25:15;;;;;;;;;;;;;;;15.01;60.69;98984.52;1776805;80;24423;-91
2021/06/04 05:27:45;;;;;;;;;;;;;;;15.12;60.63;98988.94;1721415;82;20255;-91
2021/06/04 05:30:13;;;;;;;;;;;;;;;15.22;60.61;98977.53;1741643;82;24743;-89
2021/06/04 05:32:42;;;;;;;;;;;;;;;15.24;60.52;98986.64;1744826;82;22117;-90
2021/06/04 05:35:08;;;;;;;;;;;;;;;15.26;60.45;98988.69;1750498;82;26064;-91
2021/06/04 05:37:35;;;;;;;;;;;;;;;15.31;60.45;98987.84;1746076;82;24412;-88
2021/06/04 05:40:06;;;;;;;;;;;;;;;15.37;60.45;98988.67;1742821;82;20249;-89
2021/06/04 05:42:32;;;;;;;;;;;;;;;15.40;60.41;98984.45;1753260;80;24790;-86
2021/06/04 05:44:58;;;;;;;;;;;;;;;15.46;60.39;98985.28;1746993;80;21957;-89
2021/06/04 05:47:26;;;;;;;;;;;;;;;15.54;60.37;98984.22;1751110;80;26847;-90
2021/06/04 05:49:52;;;;;;;;;;;;;;;15.61;60.33;98984.53;1751422;80;24401;-86
2021/06/04 05:52:18;;;;;;;;;;;;;;;15.68;60.34;98981.28;1752408;80;20178;-89
2021/06/04 05:54:45;;;;;;;;;;;;;;;15.72;60.37;98987.97;1742643;80;24785;-86
2021/06/04 05:57:12;;;;;;;;;;;;;;;15.80;60.41;98980.76;1730676;79;22085;-89
2021/06/04 05:59:38;;;;;;;;;;;;;;;15.86;60.42;98991.66;1752704;80;25941;-89
2021/06/04 06:02:05;;;;;;;;;;;;;;;15.94;60.40;98990.16;1752080;80;20243;-89
2021/06/04 06:04:31;;;;;;;;;;;;;;;16.06;60.40;98994.43;1732782;82;20200;-90
2021/06/04 06:06:57;;;;;;;;;;;;;;;16.12;60.37;98990.80;1733370;82;24744;-89
2021/06/04 06:09:36;;;;;;;;;;;;;;;16.16;60.39;98993.53;1733449;82;23013;-88
2021/06/04 06:12:05;;;;;;;;;;;;;;;16.24;60.42;98994.22;1713728;82;25987;-89
2021/06/04 06:14:31;;;;;;;;;;;;;;;16.22;60.40;98996.98;1748272;80;24512;-85
2021/06/04 06:16:57;;;;;;;;;;;;;;;16.23;60.34;99001.78;1752478;80;20335;-86
2021/06/04 06:19:23;;;;;;;;;;;;;;;16.18;60.34;99003.50;1754271;80;24974;-86
2021/06/04 06:21:55;;;;;;;;;;;;;;;16.11;60.28;98997.05;1731661;82;22942;-87
2021/06/04 06:24:22;;;;;;;;;;;;;;;16.14;60.31;99002.09;1731319;82;25956;-88
2021/06/04 06:26:48;;;;;;;;;;;;;;;16.22;60.35;98997.46;1708044;82;25296;-90
2021/06/04 06:29:16;;;;;;;;;;;;;;;16.24;60.47;99001.66;1733258;82;20362;-90
2021/06/04 06:31:48;;;;;;;;;;;;;;;16.24;60.47;99005.63;1732827;82;24848;-91
2021/06/04 06:34:14;;;;;;;;;;;;;;;16.29;60.56;99006.08;1732238;82;22063;-87
2021/06/04 06:36:41;;;;;;;;;;;;;;;16.35;60.58;99010.01;1747914;80;26000;-85
2021/06/04 06:39:09;;;;;;;;;;;;;;;16.43;60.57;99004.05;1753305;79;24485;-86
2021/06/04 06:41:36;;;;;;;;;;;;;;;16.55;60.57;99009.63;1769805;79;20519;-90
2021/06/04 06:44:02;;;;;;;;;;;;;;;16.65;60.59;99013.19;1779071;79;25533;-89
2021/06/04 06:46:28;;;;;;;;;;;;;;;16.77;60.61;99017.43;1780997;79;22817;-86
2021/06/04 06:49:00;;;;;;;;;;;;;;;16.83;60.61;99014.27;1778850;79;26101;-89
2021/06/04 06:51:26;;;;;;;;;;;;;;;16.86;60.58;99016.63;1781517;79;25273;-89
2021/06/04 06:53:56;;;;;;;;;;;;;;;16.83;60.44;99016.91;1782407;79;20219;-90
2021/06/04 06:56:22;;;;;;;;;;;;;;;16.84;60.36;99014.62;1781969;78;24990;-89
2021/06/04 06:58:48;;;;;;;;;;;;;;;16.88;60.27;99018.67;1780423;79;22073;-89
2021/06/04 07:01:15;;;;;;;;;;;;;;;16.91;60.21;99010.45;1781933;79;25964;-89
2021/06/04 07:03:48;;;;;;;;;;;;;;;17.03;60.19;99005.43;1780451;79;25373;-89
2021/06/04 07:06:18;;;;;;;;;;;;;;;17.13;60.09;99012.91;1785404;79;20137;-89
2021/06/04 07:08:45;;;;;;;;;;;;;;;17.23;59.99;99009.00;1782229;79;24821;-89
2021/06/04 07:11:11;;;;;;;;;;;;;;;17.32;59.86;99011.30;1785712;78;22230;-89
2021/06/04 07:13:37;;;;;;;;;;;;;;;17.44;59.78;99006.26;1784990;79;25792;-89
2021/06/04 07:16:05;;;;;;;;;;;;;;;17.52;59.52;99007.72;1780833;79;20335;-89
2021/06/04 07:18:40;;;;;;;;;;;;;;;17.60;59.33;99004.43;1701806;83;20146;-90
2021/06/04 07:21:10;;;;;;;;;;;;;;;17.69;59.06;99002.27;1739421;82;24652;-89
2021/06/04 07:23:36;;;;;;;;;;;;;;;17.80;58.94;98999.01;1738622;82;22932;-89
2021/06/04 07:26:05;;;;;;;;;;;;;;;17.98;58.86;99001.33;1738956;82;21059;-87
2021/06/04 07:28:33;;;;;;;;;;;;;;;18.15;58.79;99002.43;1708067;83;25544;-89
2021/06/04 07:31:01;;;;;;;;;;;;;;;18.32;58.66;99003.52;1713783;83;20494;-89
2021/06/04 07:33:29;;;;;;;;;;;;;;;18.48;58.51;99001.61;1719476;83;24763;-89
2021/06/04 07:36:05;;;;;;;;;;;;;;;18.59;58.30;99003.64;1700716;83;22867;-89
2021/06/04 07:38:31;;;;;;;;;;;;;;;18.73;58.12;98999.67;1708538;83;26087;-86
2021/06/04 07:41:01;;;;;;;;;;;;;;;18.86;57.95;98998.04;1708701;82;24482;-89
2021/06/04 07:43:29;;;;;;;;;;;;;;;18.95;57.70;99001.13;1718663;82;20237;-86
2021/06/04 07:45:55;;;;;;;;;;;;;;;19.07;57.48;99008.77;1714193;82;25012;-86
2021/06/04 07:48:21;;;;;;;;;;;;;;;19.18;57.27;99004.59;1713352;83;22014;-89
2021/06/04 07:50:53;;;;;;;;;;;;;;;19.32;57.09;99005.06;1741551;82;26035;-88
2021/06/04 07:53:21;;;;;;;;;;;;;;;19.32;56.67;99005.90;1740594;81;24450;-86
2021/06/04 07:55:50;;;;;;;;;;;;;;;19.39;56.47;99006.98;1742514;82;20709;-88
2021/06/04 07:58:16;;;;;;;;;;;;;;;19.48;56.23;99004.78;1741907;82;24742;-89
2021/06/04 08:00:42;;;;;;;;;;;;;;;19.53;55.94;99000.35;1742253;82;21972;-89
2021/06/04 08:03:09;;;;;;;;;;;;;;;19.61;55.72;98999.97;1741536;82;26017;-89
2021/06/04 08:05:36;;;;;;;;;;;;;;;19.70;55.48;99000.03;1778756;79;24431;-89
2021/06/04 08:08:11;;;;;;;;;;;;;;;19.79;55.25;99005.78;1774261;79;20245;-89
2021/06/04 08:10:40;;;;;;;;;;;;;;;19.92;55.05;99000.42;1778667;79;24813;-87
2021/06/04 08:13:13;;;;;;;;;;;;;;;20.08;54.94;98993.57;1779267;79;22160;-89
2021/06/04 08:15:39;;;;;;;;;;;;;;;20.23;54.82;98998.70;1778431;79;26756;-89
2021/06/04 08:18:06;;;;;;;;;;;;;;;20.34;54.65;98998.48;1779891;79;24462;-87
2021/06/04 08:20:34;;;;;;;;;;;;;;;20.44;54.45;99001.39;1777731;79;20455;-89
2021/06/04 08:23:02;;;;;;;;;;;;;;;20.51;54.18;98998.11;1781034;79;24754;-87
2021/06/04 08:25:30;;;;;;;;;;;;;;;20.59;53.85;98997.66;1754616;79;22969;-91
2021/06/04 08:28:07;;;;;;;;;;;;;;;20.72;53.70;99001.23;1751000;80;26103;-90
2021/06/04 08:30:30;;;;;;;;;;;;;;;20.77;53.44;98993.61;1779670;79;25363;-90
2021/06/04 08:32:59;;;;;;;;;;;;;;;20.88;53.17;98994.17;1775736;80;20189;-90
2021/06/04 08:35:25;;;;;;;;;;;;;;;20.92;52.78;98994.69;1780433;78;24737;-89
2021/06/04 08:37:51;;;;;;;;;;;;;;;21.01;52.46;98996.88;1736427;82;20278;-86
2021/06/04 08:40:19;;;;;;;;;;;;;;;21.00;52.08;98996.56;1732091;82;26029;-89
2021/06/04 08:42:59;;;;;;;;;;;;;;;21.07;51.92;98995.74;1744921;80;25358;-89
2021/06/04 08:45:29;;;;;;;;;;;;;;;21.19;51.73;98999.83;1670875;85;20332;-88
2021/06/04 08:48:01;;;;;;;;;;;;;;;21.30;51.53;99001.36;1704082;83;24850;-88
2021/06/04 08:50:43;;;;;;;;;;;;;;;21.43;51.37;98996.92;1728995;82;21954;-89
2021/06/04 08:53:32;;;;;;;;;;;;;;;21.58;51.05;98998.80;1709334;83;26877;-89
2021/06/04 08:56:06;;;;;;;;;;;;;;;21.69;50.70;98998.98;1712062;83;24508;-89
2021/06/04 08:58:44;;;;;;;;;;;;;;;21.84;50.48;98998.66;1743726;82;20328;-89
2021/06/04 09:01:12;;;;;;;;;;;;;;;21.84;50.14;99000.48;1742587;82;24736;-86
2021/06/04 09:03:42;;;;;;;;;;;;;;;21.81;49.77;98995.50;1741503;82;21997;-89
2021/06/04 09:06:10;;;;;;;;;;;;;;;21.78;49.41;98995.81;1743555;82;26762;-86
2021/06/04 09:08:37;;;;;;;;;;;;;;;21.76;49.13;98993.34;1737775;82;24431;-87
2021/06/04 09:11:05;;;;;;;;;;;;;;;21.79;48.93;98990.33;1742571;82;20183;-86
2021/06/04 09:13:33;;;;;;;;;;;;;;;21.84;48.72;98985.34;1739905;82;25013;-86
2021/06/04 09:16:07;;;;;;;;;;;;;;;21.84;48.41;98985.34;1744477;82;22196;-89
2021/06/04 09:18:53;;;;;;;;;;;;;;;21.86;48.10;98983.36;1743442;82;25998;-89
2021/06/04 09:21:21;;;;;;;;;;;;;;;21.97;47.97;98973.73;1741707;82;25235;-89
2021/06/04 09:23:47;;;;;;;;;;;;;;;22.15;47.81;98970.88;1737472;82;20274;-88
2021/06/04 09:26:15;;;;;;;;;;;;;;;22.28;47.59;98964.55;1740352;82;24747;-86
2021/06/04 09:28:48;;;;;;;;;;;;;;;22.36;47.39;98966.39;1739976;82;22203;-86
2021/06/04 09:31:22;;;;;;;;;;;;;;;22.39;47.16;98956.70;1741003;82;25941;-85
2021/06/04 09:33:50;;;;;;;;;;;;;;;22.52;47.22;98959.19;1740757;82;24595;-85
2021/06/04 09:36:18;;;;;;;;;;;;;;;22.58;46.93;98955.01;1743802;82;20368;-88
2021/06/04 09:38:55;;;;;;;;;;;;;;;22.63;46.74;98964.66;1710879;82;24810;-88
2021/06/04 09:41:26;;;;;;;;;;;;;;;22.63;46.36;98960.66;1734664;82;21986;-88
2021/06/04 09:44:10;;;;;;;;;;;;;;;22.60;46.13;98956.98;1718745;82;26721;-85
2021/06/04 09:46:41;;;;;;;;;;;;;;;22.72;46.15;98960.16;1714113;82;24448;-85
2021/06/04 09:49:07;;;;;;;;;;;;;;;22.83;46.02;98953.12;1710814;82;20291;-85
2021/06/04 09:51:34;;;;;;;;;;;;;;;22.89;45.83;98951.94;1720529;82;20285;-88
2021/06/04 09:54:02;;;;;;;;;;;;;;;22.94;45.67;98956.25;1722520;82;22048;-86
2021/06/04 09:56:30;;;;;;;;;;;;;;;23.01;45.51;98956.90;1705530;82;26837;-87
2021/06/04 09:59:02;;;;;;;;;;;;;;;23.09;45.46;98960.35;1720548;82;24507;-89
2021/06/04 10:01:30;;;;;;;;;;;;;;;23.15;45.29;98961.00;1715445;82;20281;-90
2021/06/04 10:03:57;;;;;;;;;;;;;;;23.25;45.08;98962.11;1722503;82;24734;-89
2021/06/04 10:06:28;;;;;;;;;;;;;;;23.29;44.90;98958.91;1715339;82;22769;-90
2021/06/04 10:08:56;;;;;;;;;;;;;;;23.36;44.69;98968.40;1719432;81;25948;-89
2021/06/04 10:11:24;;;;;;;;;;;;;;;23.52;44.46;98968.84;1724005;82;23969;-90
2021/06/04 10:14:06;;;;;;;;;;;;;;;23.62;44.32;98964.13;1726728;82;20322;-90
2021/06/04 10:19:27;;;;;;;;;;;;;;;23.64;43.87;98958.91;1719369;82;22724;-87
2021/06/04 10:21:55;;;;;;;;;;;;;;;23.57;43.54;98957.11;1720207;82;25971;-86
2021/06/04 10:24:26;;;;;;;;;;;;;;;23.54;43.31;98959.66;1713795;82;24695;-86
2021/06/04 10:26:54;;;;;;;;;;;;;;;23.57;43.21;98953.94;1720389;82;20234;-86
2021/06/04 10:29:20;;;;;;;;;;;;;;;23.68;43.11;98960.22;1718353;82;24767;-87
2021/06/04 10:31:57;;;;;;;;;;;;;;;23.67;42.85;98963.92;1714161;82;22737;-89
2021/06/04 10:34:25;;;;;;;;;;;;;;;23.71;42.66;98957.70;1720089;82;26142;-89
2021/06/04 10:36:55;;;;;;;;;;;;;;;23.84;42.60;98955.25;1708735;82;24533;-90
2021/06/04 10:39:31;;;;;;;;;;;;;;;24.00;42.39;98955.13;1717147;82;20853;-90
2021/06/04 10:42:11;;;;;;;;;;;;;;;24.12;42.24;98942.16;1714538;82;25547;-90
2021/06/04 10:44:39;;;;;;;;;;;;;;;24.20;42.01;98946.14;1709390;81;22009;-90
2021/06/04 10:47:07;;;;;;;;;;;;;;;24.18;41.59;98943.64;1713530;81;26871;-91
2021/06/04 10:49:53;;;;;;;;;;;;;;;24.22;41.41;98945.44;1715261;83;24667;-90
2021/06/04 10:52:38;;;;;;;;;;;;;;;24.16;41.16;98939.47;1712458;83;20222;-90
2021/06/04 10:55:09;;;;;;;;;;;;;;;24.16;41.01;98938.13;1712033;82;24720;-92
2021/06/04 10:57:48;;;;;;;;;;;;;;;24.27;40.91;98925.69;1666551;85;22077;-90
2021/06/04 11:00:22;;;;;;;;;;;;;;;24.41;40.90;98934.23;1708999;81;26780;-89
2021/06/04 11:03:10;;;;;;;;;;;;;;;24.42;40.70;98926.53;1718013;83;25316;-90
2021/06/04 11:05:53;;;;;;;;;;;;;;;24.43;40.55;98925.52;1713694;83;20306;-90
2021/06/04 11:08:24;;;;;;;;;;;;;;;24.40;40.22;98922.36;1714452;83;24739;-89
2021/06/04 11:11:04;;;;;;;;;;;;;;;24.47;40.18;98918.78;1711348;83;21956;-91
2021/06/04 11:13:48;;;;;;;;;;;;;;;24.63;40.13;98919.11;1645811;85;26836;-91
2021/06/04 11:16:25;;;;;;;;;;;;;;;24.72;39.96;98913.14;1646758;86;25124;-91
2021/06/04 11:18:53;;;;;;;;;;;;;;;24.76;39.77;98906.42;1648093;86;20248;-91
2021/06/04 11:21:35;;;;;;;;;;;;;;;24.78;39.71;98905.20;1646883;86;24937;-91
2021/06/04 11:24:15;;;;;;;;;;;;;;;24.83;39.64;98907.32;1690834;83;21839;-91
2021/06/04 11:26:50;;;;;;;;;;;;;;;24.87;39.61;98902.77;1715056;82;26854;-91
2021/06/04 11:29:21;;;;;;;;;;;;;;;24.81;39.39;98899.49;1720397;81;24457;-90
2021/06/04 11:32:11;;;;;;;;;;;;;;;24.69;38.99;98902.81;1706197;83;20546;-90
2021/06/04 11:34:43;;;;;;;;;;;;;;;24.63;38.83;98897.70;1717895;83;24761;-90
2021/06/04 11:37:14;;;;;;;;;;;;;;;24.71;38.67;98896.24;1711193;83;21974;-89
2021/06/04 11:39:45;;;;;;;;;;;;;;;24.62;38.26;98892.52;1705859;83;25424;-89
2021/06/04 11:42:18;;;;;;;;;;;;;;;24.49;38.00;98898.00;1716697;83;24523;-89
2021/06/04 11:44:44;;;;;;;;;;;;;;;24.53;38.03;98897.15;1680980;84;20248;-89
2021/06/04 11:47:15;;;;;;;;;;;;;;;24.56;37.85;98906.13;1693865;83;25394;-89
2021/06/04 11:49:55;;;;;;;;;;;;;;;24.47;37.62;98898.72;1686851;84;22774;-89
2021/06/04 11:52:29;;;;;;;;;;;;;;;24.56;37.70;98902.12;1681151;84;26116;-90
2021/06/04 11:55:08;;;;;;;;;;;;;;;24.54;37.49;98894.30;1693602;82;24458;-90
2021/06/04 11:57:49;;;;;;;;;;;;;;;24.64;37.52;98893.17;1688291;84;20236;-90
2021/06/04 12:00:27;;;;;;;;;;;;;;;24.72;37.47;98889.05;1684856;82;24785;-89
2021/06/04 12:02:54;;;;;;;;;;;;;;;24.89;37.43;98893.22;1687624;84;22388;-90
2021/06/04 12:05:25;;;;;;;;;;;;;;;25.06;37.39;98887.98;1682259;84;26049;-90
2021/06/04 12:08:10;;;;;;;;;;;;;;;25.19;37.28;98887.30;1685568;84;24444;-88
2021/06/04 12:10:50;;;;;;;;;;;;;;;25.16;37.07;98887.16;1679072;84;20279;-88
2021/06/04 12:13:33;;;;;;;;;;;;;;;25.09;36.93;98882.26;1685446;84;25074;-88
2021/06/04 12:16:09;;;;;;;;;;;;;;;25.14;37.00;98889.22;1686972;84;22015;-89
2021/06/04 12:18:37;;;;;;;;;;;;;;;25.02;36.82;98880.51;1674370;84;25597;-88
2021/06/04 12:21:03;;;;;;;;;;;;;;;25.05;36.84;98880.95;1644803;86;24736;-89
2021/06/04 12:23:40;;;;;;;;;;;;;;;25.06;36.84;98875.92;1669913;83;20471;-89
2021/06/04 12:26:07;;;;;;;;;;;;;;;25.06;36.73;98879.11;1644129;86;20340;-89
2021/06/04 12:28:37;;;;;;;;;;;;;;;24.98;36.59;98876.05;1665974;84;21942;-90
2021/06/04 12:31:05;;;;;;;;;;;;;;;24.92;36.52;98876.29;1727733;82;25969;-90
2021/06/04 12:33:37;;;;;;;;;;;;;;;24.85;36.42;98873.16;1700450;82;24271;-90
2021/06/04 12:36:04;;;;;;;;;;;;;;;24.86;36.38;98872.16;1733349;82;20332;-90
2021/06/04 12:38:33;;;;;;;;;;;;;;;24.92;36.45;98868.77;1703930;84;24737;-87
2021/06/04 12:41:00;;;;;;;;;;;;;;;25.04;36.61;98867.23;1672695;84;22057;-87
2021/06/04 12:43:32;;;;;;;;;;;;;;;25.01;36.39;98866.28;1685841;82;25887;-90
2021/06/04 12:46:11;;;;;;;;;;;;;;;24.93;36.33;98863.70;1776903;79;24591;-90
2021/06/04 12:48:39;;;;;;;;;;;;;;;25.07;36.48;98862.02;1780541;79;20280;-90
2021/06/04 12:51:07;;;;;;;;;;;;;;;25.17;36.45;98862.03;1778144;79;24754;-90
2021/06/04 12:53:50;;;;;;;;;;;;;;;25.26;36.41;98868.92;1774732;79;22015;-89
2021/06/04 12:56:18;;;;;;;;;;;;;;;25.25;36.19;98869.97;1782841;79;25941;-90
2021/06/04 12:58:50;;;;;;;;;;;;;;;25.12;35.97;98867.14;1780360;79;24402;-91
2021/06/04 13:01:20;;;;;;;;;;;;;;;25.03;35.86;98857.56;1774637;79;20308;-86
2021/06/04 13:03:56;;;;;;;;;;;;;;;25.13;35.91;98855.91;1774954;79;24948;-87
2021/06/04 13:06:31;;;;;;;;;;;;;;;25.17;35.94;98859.36;1779942;79;22603;-87